Time,TemperatureF,DewpointF,PressureIn,WindDirection,WindDirectionDegrees,WindSpeedMPH,WindSpeedGustMPH,Humidity,HourlyPrecipIn,Conditions,Clouds,dailyrainin,SoftwareType,DateUTC
2013-01-19 00:00:00,37.4,34.0,30.18,NE,52,0.0,0.0,88,0.00,,,0.00,weatherlink.com 1.10,2013-01-19 08:00:00,
2013-01-19 00:15:00,35.6,33.0,30.18,NE,52,0.0,0.0,90,0.00,,,0.00,weatherlink.com 1.10,2013-01-19 08:15:00,
2013-01-19 00:30:00,36.2,34.0,30.18,NE,52,0.0,0.0,92,0.00,,,0.00,weatherlink.com 1.10,2013-01-19 08:30:00,
2013-01-19 00:45:00,36.5,34.0,30.18,NE,52,0.0,0.0,91,0.00,,,0.00,weatherlink.com 1.10,2013-01-19 08:45:00,
2013-01-19 01:00:00,35.7,33.0,30.18,NE,40,0.0,0.0,91,0.00,,,0.00,weatherlink.com 1.10,2013-01-19 09:00:00,
2013-01-19 01:15:00,34.7,32.0,30.18,NE,40,0.0,0.0,91,0.00,,,0.00,weatherlink.com 1.10,2013-01-19 09:15:00,
2013-01-19 01:30:00,33.7,32.0,30.18,NE,40,0.0,0.0,92,0.00,,,0.00,weatherlink.com 1.10,2013-01-19 09:30:00,
2013-01-19 01:45:00,33.3,31.0,30.19,NE,39,0.0,0.0,92,0.00,,,0.00,weatherlink.com 1.10,2013-01-19 09:45:00,
2013-01-19 02:00:00,33.4,31.0,30.19,NNW,346,0.0,0.0,92,0.00,,,0.00,weatherlink.com 1.10,2013-01-19 10:00:00,
2013-01-19 02:15:00,33.5,32.0,30.20,NE,41,0.0,0.0,92,0.00,,,0.00,weatherlink.com 1.10,2013-01-19 10:15:00,
2013-01-19 02:30:00,34.8,33.0,30.20,ENE,63,0.0,0.0,93,0.00,,,0.00,weatherlink.com 1.10,2013-01-19 10:30:00,
2013-01-19 02:45:00,33.6,31.0,30.20,NE,40,0.0,0.0,91,0.00,,,0.00,weatherlink.com 1.10,2013-01-19 10:45:00,
2013-01-19 03:00:00,33.2,31.0,30.20,SSW,205,0.0,0.0,92,0.00,,,0.00,weatherlink.com 1.10,2013-01-19 11:00:00,
2013-01-19 05:01:00,30.9,29.0,30.20,SW,214,0.0,3.0,93,0.00,,,0.00,weatherlink.com 1.10,2013-01-19 13:01:00,
2013-01-19 05:16:00,30.8,29.0,30.21,SSW,204,0.0,0.0,94,0.00,,,0.00,weatherlink.com 1.10,2013-01-19 13:16:00,
2013-01-19 05:46:00,30.9,29.0,30.21,ESE,104,0.0,0.0,94,0.00,,,0.00,weatherlink.com 1.10,2013-01-19 13:46:00,
2013-01-19 06:01:00,30.9,29.0,30.21,ESE,104,0.0,0.0,94,0.00,,,0.00,weatherlink.com 1.10,2013-01-19 14:01:00,
2013-01-19 06:16:00,30.1,29.0,30.21,ESE,105,0.0,0.0,94,0.00,,,0.00,weatherlink.com 1.10,2013-01-19 14:16:00,
2013-01-19 06:31:00,29.1,28.0,30.21,ESE,105,0.0,0.0,94,0.00,,,0.00,weatherlink.com 1.10,2013-01-19 14:31:00,
2013-01-19 06:46:00,29.1,28.0,30.22,ESE,105,0.0,0.0,94,0.00,,,0.00,weatherlink.com 1.10,2013-01-19 14:46:00,
2013-01-19 07:01:00,29.8,29.0,30.22,ESE,105,0.0,0.0,95,0.00,,,0.00,weatherlink.com 1.10,2013-01-19 15:01:00,
2013-01-19 07:16:00,29.5,28.0,30.22,SSW,193,0.0,0.0,95,0.00,,,0.00,weatherlink.com 1.10,2013-01-19 15:16:00,
2013-01-19 07:31:00,29.5,28.0,30.22,South,191,0.0,0.0,95,0.00,,,0.00,weatherlink.com 1.10,2013-01-19 15:31:00,
2013-01-19 07:46:00,29.9,29.0,30.23,South,191,0.0,0.0,95,0.00,,,0.00,weatherlink.com 1.10,2013-01-19 15:46:00,
2013-01-19 08:01:00,30.7,30.0,30.23,South,191,0.0,0.0,95,0.00,,,0.00,weatherlink.com 1.10,2013-01-19 16:01:00,
2013-01-19 08:31:00,33.7,33.0,30.24,East,98,0.0,0.0,95,0.00,,,0.00,weatherlink.com 1.10,2013-01-19 16:31:00,
2013-01-19 08:46:00,36.1,35.0,30.24,East,98,0.0,0.0,95,0.00,,,0.00,weatherlink.com 1.10,2013-01-19 16:46:00,
2013-01-19 09:01:00,38.5,37.0,30.24,NW,326,0.0,1.0,93,0.00,,,0.00,weatherlink.com 1.10,2013-01-19 17:01:00,
2013-01-19 09:16:00,41.5,38.0,30.25,NW,326,0.0,0.0,87,0.00,,,0.00,weatherlink.com 1.10,2013-01-19 17:16:00,
2013-01-19 09:31:00,43.9,38.0,30.25,WNW,293,0.0,0.0,80,0.00,,,0.00,weatherlink.com 1.10,2013-01-19 17:31:00,
2013-01-19 09:46:00,44.6,38.0,30.26,WSW,245,0.0,0.0,78,0.00,,,0.00,weatherlink.com 1.10,2013-01-19 17:46:00,
2013-01-19 10:01:00,46.3,37.0,30.25,WSW,242,0.0,0.0,71,0.00,,,0.00,weatherlink.com 1.10,2013-01-19 18:01:00,
2013-01-19 10:17:00,47.5,37.0,30.25,WSW,238,0.0,0.0,68,0.00,,,0.00,weatherlink.com 1.10,2013-01-19 18:17:00,
2013-01-19 10:47:00,49.9,37.0,30.24,SW,226,1.0,2.0,62,0.00,,,0.00,weatherlink.com 1.10,2013-01-19 18:47:00,
2013-01-19 11:02:00,50.8,38.0,30.24,SW,217,0.0,2.0,62,0.00,,,0.00,weatherlink.com 1.10,2013-01-19 19:02:00,
2013-01-19 11:17:00,52.7,38.0,30.23,SW,236,0.0,2.0,58,0.00,,,0.00,weatherlink.com 1.10,2013-01-19 19:17:00,
2013-01-19 11:32:00,53.7,39.0,30.23,WSW,250,0.0,0.0,58,0.00,,,0.00,weatherlink.com 1.10,2013-01-19 19:32:00,
2013-01-19 12:02:00,55.8,39.0,30.21,NW,316,0.0,0.0,53,0.00,,,0.00,weatherlink.com 1.10,2013-01-19 20:02:00,
2013-01-19 12:17:00,56.3,39.0,30.20,WNW,301,0.0,0.0,52,0.00,,,0.00,weatherlink.com 1.10,2013-01-19 20:17:00,
2013-01-19 12:32:00,57.8,40.0,30.20,WSW,243,2.0,2.0,51,0.00,,,0.00,weatherlink.com 1.10,2013-01-19 20:32:00,
2013-01-19 12:47:00,59.4,39.0,30.19,SSE,160,2.0,4.0,48,0.00,,,0.00,weatherlink.com 1.10,2013-01-19 20:47:00,
2013-01-19 13:02:00,60.3,40.0,30.19,SSE,149,2.0,4.0,47,0.00,,,0.00,weatherlink.com 1.10,2013-01-19 21:02:00,
2013-01-19 13:17:00,60.8,40.0,30.18,SSW,208,3.0,3.0,47,0.00,,,0.00,weatherlink.com 1.10,2013-01-19 21:17:00,
2013-01-19 13:32:00,61.4,41.0,30.18,SW,214,0.0,3.0,48,0.00,,,0.00,weatherlink.com 1.10,2013-01-19 21:32:00,
2013-01-19 13:47:00,61.6,43.0,30.17,WNW,295,0.0,4.0,50,0.00,,,0.00,weatherlink.com 1.10,2013-01-19 21:47:00,
2013-01-19 14:02:00,62.9,44.0,30.17,WSW,238,1.0,6.0,51,0.00,,,0.00,weatherlink.com 1.10,2013-01-19 22:02:00,
2013-01-19 14:17:00,62.7,44.0,30.16,SW,230,3.0,7.0,51,0.00,,,0.00,weatherlink.com 1.10,2013-01-19 22:17:00,
2013-01-19 14:32:00,63.1,44.0,30.16,South,190,0.0,6.0,51,0.00,,,0.00,weatherlink.com 1.10,2013-01-19 22:32:00,
2013-01-19 14:47:00,62.9,44.0,30.16,SSW,211,4.0,6.0,50,0.00,,,0.00,weatherlink.com 1.10,2013-01-19 22:47:00,
2013-01-19 15:17:00,63.8,44.0,30.16,SW,219,4.0,6.0,49,0.00,,,0.00,weatherlink.com 1.10,2013-01-19 23:17:00,
2013-01-19 15:32:00,63.9,44.0,30.16,SW,225,2.0,5.0,49,0.00,,,0.00,weatherlink.com 1.10,2013-01-19 23:32:00,
2013-01-19 15:47:00,63.1,43.0,30.15,South,190,3.0,8.0,49,0.00,,,0.00,weatherlink.com 1.10,2013-01-19 23:47:00,
2013-01-19 16:18:00,60.8,43.0,30.16,WSW,250,2.0,7.0,52,0.00,,,0.00,weatherlink.com 1.10,2013-01-20 00:18:00,
2013-01-19 16:33:00,59.9,43.0,30.16,WSW,256,0.0,4.0,54,0.00,,,0.00,weatherlink.com 1.10,2013-01-20 00:33:00,
2013-01-19 16:47:00,59.3,44.0,30.16,WSW,238,0.0,0.0,57,0.00,,,0.00,weatherlink.com 1.10,2013-01-20 00:47:00,
2013-01-19 17:02:00,57.6,44.0,30.16,NNE,20,0.0,0.0,60,0.00,,,0.00,weatherlink.com 1.10,2013-01-20 01:02:00,
2013-01-19 17:18:00,56.9,43.0,30.16,NNE,20,0.0,0.0,61,0.00,,,0.00,weatherlink.com 1.10,2013-01-20 01:18:00,
2013-01-19 17:33:00,54.3,43.0,30.16,SE,129,0.0,0.0,67,0.00,,,0.00,weatherlink.com 1.10,2013-01-20 01:33:00,
2013-01-19 17:48:00,52.8,44.0,30.16,ESE,113,0.0,0.0,71,0.00,,,0.00,weatherlink.com 1.10,2013-01-20 01:48:00,
2013-01-19 18:18:00,51.0,42.0,30.16,ESE,117,0.0,0.0,70,0.00,,,0.00,weatherlink.com 1.10,2013-01-20 02:18:00,
2013-01-19 18:33:00,49.9,41.0,30.17,ENE,72,0.0,0.0,72,0.00,,,0.00,weatherlink.com 1.10,2013-01-20 02:33:00,
2013-01-19 18:48:00,49.2,41.0,30.17,ENE,65,0.0,0.0,74,0.00,,,0.00,weatherlink.com 1.10,2013-01-20 02:48:00,
2013-01-19 19:03:00,48.1,41.0,30.17,ENE,65,0.0,0.0,76,0.00,,,0.00,weatherlink.com 1.10,2013-01-20 03:03:00,
2013-01-19 19:33:00,46.1,40.0,30.18,ENE,65,0.0,0.0,79,0.00,,,0.00,weatherlink.com 1.10,2013-01-20 03:33:00,
2013-01-19 20:03:00,46.4,41.0,30.18,ENE,72,0.0,0.0,80,0.00,,,0.00,weatherlink.com 1.10,2013-01-20 04:03:00,
2013-01-19 20:18:00,45.6,40.0,30.19,ENE,70,0.0,0.0,80,0.00,,,0.00,weatherlink.com 1.10,2013-01-20 04:18:00,
2013-01-19 20:33:00,44.7,39.0,30.19,NE,41,0.0,0.0,80,0.00,,,0.00,weatherlink.com 1.10,2013-01-20 04:33:00,
2013-01-19 20:48:00,44.8,38.0,30.20,ENE,70,0.0,0.0,78,0.00,,,0.00,weatherlink.com 1.10,2013-01-20 04:48:00,
2013-01-19 21:03:00,43.4,38.0,30.20,ENE,70,0.0,0.0,80,0.00,,,0.00,weatherlink.com 1.10,2013-01-20 05:03:00,
2013-01-19 21:18:00,43.2,38.0,30.21,NE,53,0.0,0.0,83,0.00,,,0.00,weatherlink.com 1.10,2013-01-20 05:18:00,
2013-01-19 21:33:00,43.6,38.0,30.21,ENE,65,1.0,2.0,82,0.00,,,0.00,weatherlink.com 1.10,2013-01-20 05:33:00,
2013-01-19 21:48:00,43.5,38.0,30.21,ENE,60,1.0,2.0,82,0.00,,,0.00,weatherlink.com 1.10,2013-01-20 05:48:00,
2013-01-19 22:03:00,42.7,37.0,30.22,East,91,0.0,2.0,80,0.00,,,0.00,weatherlink.com 1.10,2013-01-20 06:03:00,
2013-01-19 22:18:00,41.0,36.0,30.22,NNE,23,0.0,1.0,81,0.00,,,0.00,weatherlink.com 1.10,2013-01-20 06:18:00,
2013-01-19 22:33:00,38.9,34.0,30.22,NE,41,0.0,0.0,83,0.00,,,0.00,weatherlink.com 1.10,2013-01-20 06:33:00,
2013-01-19 22:48:00,38.2,34.0,30.22,NE,37,0.0,0.0,85,0.00,,,0.00,weatherlink.com 1.10,2013-01-20 06:48:00,
2013-01-19 23:03:00,37.9,34.0,30.22,NNE,31,0.0,0.0,87,0.00,,,0.00,weatherlink.com 1.10,2013-01-20 07:03:00,
2013-01-19 23:18:00,38.0,35.0,30.22,NE,34,0.0,0.0,87,0.00,,,0.00,weatherlink.com 1.10,2013-01-20 07:18:00,
2013-01-19 23:33:00,37.6,34.0,30.22,NE,34,0.0,0.0,88,0.00,,,0.00,weatherlink.com 1.10,2013-01-20 07:33:00,
2013-01-19 23:48:00,36.7,34.0,30.23,NE,34,0.0,0.0,88,0.00,,,0.00,weatherlink.com 1.10,2013-01-20 07:48:00,